createdAt,value
2023-08-22T00:00:34.166Z,18.90
2023-08-22T00:03:01.556Z,18.90
2023-08-22T00:05:28.931Z,18.90
2023-08-22T00:07:55.994Z,18.80
2023-08-22T00:10:23.126Z,18.80
2023-08-22T00:12:50.159Z,18.80
2023-08-22T00:15:17.274Z,18.80
2023-08-22T00:17:44.579Z,18.80
2023-08-22T00:20:13.510Z,18.80
2023-08-22T00:22:40.864Z,18.70
2023-08-22T00:25:08.307Z,18.70
2023-08-22T00:27:35.690Z,18.60
2023-08-22T00:30:02.993Z,18.70
2023-08-22T00:32:31.005Z,18.60
2023-08-22T00:34:58.077Z,18.60
2023-08-22T00:37:25.222Z,18.60
2023-08-22T00:39:52.286Z,18.50
2023-08-22T00:42:19.648Z,18.50
2023-08-22T00:44:46.658Z,18.50
2023-08-22T00:47:14.106Z,18.50
2023-08-22T00:49:41.241Z,18.50
2023-08-22T00:52:08.830Z,18.50
2023-08-22T00:54:35.849Z,18.50
2023-08-22T00:57:02.957Z,18.50
2023-08-22T00:59:29.999Z,18.40
2023-08-22T01:01:57.009Z,18.40
2023-08-22T01:04:24.014Z,18.40
2023-08-22T01:07:01.250Z,18.40
2023-08-22T01:09:37.156Z,18.30
2023-08-22T01:12:17.789Z,18.30
2023-08-22T01:14:47.071Z,18.30
2023-08-22T01:17:17.152Z,18.30
2023-08-22T01:19:44.280Z,18.30
2023-08-22T01:22:11.909Z,18.30
2023-08-22T01:24:38.972Z,18.30
2023-08-22T01:27:06.025Z,18.30
2023-08-22T01:29:43.013Z,18.20
2023-08-22T01:32:32.175Z,18.20
2023-08-22T01:35:02.623Z,18.20
2023-08-22T01:37:32.880Z,18.20
2023-08-22T01:40:00.251Z,18.20
2023-08-22T01:42:27.256Z,18.20
2023-08-22T01:44:54.295Z,18.10
2023-08-22T01:47:21.246Z,18.10
2023-08-22T01:49:48.326Z,18.10
2023-08-22T01:52:15.335Z,18.10
2023-08-22T01:54:42.463Z,18.10
2023-08-22T01:57:09.466Z,18.10
2023-08-22T01:59:36.594Z,18.00
2023-08-22T02:02:03.862Z,18.00
2023-08-22T02:04:30.856Z,18.00
2023-08-22T02:06:57.892Z,18.00
2023-08-22T02:09:24.933Z,17.90
2023-08-22T02:11:52.673Z,17.90
2023-08-22T02:14:19.866Z,17.90
2023-08-22T02:16:46.871Z,17.90
2023-08-22T02:19:13.879Z,17.90
2023-08-22T02:21:40.854Z,17.90
2023-08-22T02:24:07.957Z,17.90
2023-08-22T02:26:35.329Z,17.90
2023-08-22T02:29:02.399Z,17.90
2023-08-22T02:31:29.383Z,17.90
2023-08-22T02:33:59.009Z,17.90
2023-08-22T02:36:26.020Z,17.80
2023-08-22T02:38:53.067Z,17.80
2023-08-22T02:41:20.148Z,17.80
2023-08-22T02:43:47.136Z,17.80
2023-08-22T02:46:14.070Z,17.70
2023-08-22T02:48:41.219Z,17.70
2023-08-22T02:51:08.239Z,17.70
2023-08-22T02:53:35.194Z,17.70
2023-08-22T02:56:02.258Z,17.70
2023-08-22T02:58:29.212Z,17.70
2023-08-22T03:00:56.231Z,17.60
2023-08-22T03:03:23.448Z,17.60
2023-08-22T03:05:50.447Z,17.60
2023-08-22T03:08:17.487Z,17.60
2023-08-22T03:10:44.493Z,17.60
2023-08-22T03:13:11.607Z,17.50
2023-08-22T03:15:39.117Z,17.50
2023-08-22T03:18:06.171Z,17.50
2023-08-22T03:20:33.288Z,17.50
2023-08-22T03:23:00.812Z,17.50
2023-08-22T03:25:27.886Z,17.50
2023-08-22T03:27:54.869Z,17.50
2023-08-22T03:30:21.870Z,17.50
2023-08-22T03:32:49.161Z,17.50
2023-08-22T03:35:16.202Z,17.50
2023-08-22T03:37:43.588Z,17.50
2023-08-22T03:40:11.311Z,17.50
2023-08-22T03:42:38.483Z,17.50
2023-08-22T03:45:05.948Z,17.60
2023-08-22T03:47:33.089Z,17.60
2023-08-22T03:50:00.177Z,17.60
2023-08-22T03:52:27.207Z,17.60
2023-08-22T03:54:54.198Z,17.60
2023-08-22T03:57:21.149Z,17.60
2023-08-22T03:59:48.798Z,17.60
2023-08-22T04:02:15.939Z,17.60
2023-08-22T04:04:42.981Z,17.60
2023-08-22T04:07:10.020Z,17.60
2023-08-22T04:09:37.099Z,17.60
2023-08-22T04:12:04.140Z,17.60
2023-08-22T04:14:31.140Z,17.60
2023-08-22T04:16:58.260Z,17.60
2023-08-22T04:19:26.329Z,17.60
2023-08-22T04:21:53.314Z,17.60
2023-08-22T04:24:20.324Z,17.60
2023-08-22T04:26:47.701Z,17.60
2023-08-22T04:29:15.191Z,17.60
2023-08-22T04:31:44.814Z,17.60
2023-08-22T04:34:11.855Z,17.60
2023-08-22T04:36:38.829Z,17.70
2023-08-22T04:39:05.997Z,17.70
2023-08-22T04:41:33.100Z,17.70
2023-08-22T04:44:00.091Z,17.70
2023-08-22T04:46:27.169Z,17.70
2023-08-22T04:48:54.293Z,17.70
2023-08-22T04:51:21.319Z,17.70
2023-08-22T04:53:48.456Z,17.70
2023-08-22T04:56:15.692Z,17.70
2023-08-22T04:58:42.903Z,17.70
2023-08-22T05:01:10.114Z,17.70
2023-08-22T05:03:37.157Z,17.70
2023-08-22T05:06:04.189Z,17.70
2023-08-22T05:08:31.264Z,17.70
2023-08-22T05:10:58.321Z,17.70
2023-08-22T05:13:25.382Z,17.70
2023-08-22T05:15:52.396Z,17.80
2023-08-22T05:18:19.539Z,17.80
2023-08-22T05:20:46.539Z,17.80
2023-08-22T05:23:13.799Z,17.80
2023-08-22T05:25:40.824Z,17.80
2023-08-22T05:28:10.339Z,17.80
2023-08-22T05:30:40.576Z,17.80
2023-08-22T05:33:07.852Z,17.90
2023-08-22T05:35:35.011Z,17.90
2023-08-22T05:38:02.006Z,17.90
2023-08-22T05:40:30.977Z,17.90
2023-08-22T05:42:58.008Z,18.00
2023-08-22T05:45:24.974Z,18.00
2023-08-22T05:47:52.172Z,18.00
2023-08-22T05:50:19.306Z,18.00
2023-08-22T05:52:46.300Z,18.10
2023-08-22T05:55:13.405Z,18.10
2023-08-22T05:57:40.770Z,18.10
2023-08-22T06:00:10.038Z,18.10
2023-08-22T06:02:37.124Z,18.20
2023-08-22T06:05:04.348Z,18.20
2023-08-22T06:07:31.363Z,18.20
2023-08-22T06:09:59.556Z,18.30
2023-08-22T06:12:26.749Z,18.30
2023-08-22T06:14:53.972Z,18.40
2023-08-22T06:17:21.127Z,18.40
2023-08-22T06:19:50.021Z,18.50
2023-08-22T06:22:17.088Z,18.50
2023-08-22T06:24:44.035Z,18.50
2023-08-22T06:27:11.020Z,18.60
2023-08-22T06:29:38.520Z,18.60
2023-08-22T06:32:05.614Z,18.70
2023-08-22T06:34:32.775Z,18.70
2023-08-22T06:36:59.779Z,18.80
2023-08-22T06:39:26.764Z,18.80
2023-08-22T06:41:53.740Z,18.90
2023-08-22T06:44:20.748Z,18.90
2023-08-22T06:46:47.715Z,18.90
2023-08-22T06:49:14.704Z,19.00
2023-08-22T06:51:41.685Z,19.00
2023-08-22T06:54:08.699Z,19.10
2023-08-22T06:56:35.768Z,19.10
2023-08-22T06:59:02.747Z,19.10
2023-08-22T07:01:29.777Z,19.20
2023-08-22T07:04:10.530Z,19.20
2023-08-22T07:06:43.364Z,19.30
2023-08-22T07:09:10.282Z,19.40
2023-08-22T07:11:37.258Z,19.40
2023-08-22T07:14:04.659Z,19.40
2023-08-22T07:16:31.789Z,19.40
2023-08-22T07:18:58.826Z,19.40
2023-08-22T07:21:49.417Z,19.50
2023-08-22T07:28:14.951Z,19.60
2023-08-22T07:30:56.904Z,19.60
2023-08-22T07:58:18.327Z,20.10
2023-08-22T08:01:06.283Z,20.10
2023-08-22T08:03:59.692Z,20.10
2023-08-22T08:18:31.671Z,20.30
2023-08-22T08:21:54.475Z,20.50
2023-08-22T08:35:31.965Z,20.90
2023-08-22T08:38:04.606Z,20.90
2023-08-22T08:41:14.805Z,21.00
2023-08-22T08:44:05.163Z,21.00
2023-08-22T08:47:19.898Z,21.00
2023-08-22T08:50:16.727Z,21.10
2023-08-22T09:12:39.890Z,21.50
2023-08-22T09:18:05.875Z,21.80
2023-08-22T09:24:28.418Z,22.00
2023-08-22T09:46:21.017Z,22.00
2023-08-22T09:49:09.814Z,22.10
2023-08-22T09:59:25.142Z,22.40
2023-08-22T10:01:53.405Z,22.40
2023-08-22T10:04:26.472Z,22.50
2023-08-22T10:07:02.729Z,22.50
2023-08-22T10:17:28.146Z,22.70
2023-08-22T10:20:08.677Z,22.70
2023-08-22T10:22:35.620Z,22.70
2023-08-22T10:25:06.713Z,22.70
2023-08-22T10:27:34.321Z,22.70
2023-08-22T10:30:17.161Z,22.70
2023-08-22T10:33:14.279Z,22.70
2023-08-22T10:36:17.142Z,22.70
2023-08-22T10:38:57.711Z,22.70
2023-08-22T10:41:44.870Z,22.70
2023-08-22T10:44:30.501Z,22.80
2023-08-22T10:47:02.062Z,22.80
2023-08-22T10:49:32.574Z,22.80
2023-08-22T10:52:09.690Z,22.90
2023-08-22T10:55:01.777Z,22.90
2023-08-22T10:57:31.014Z,23.00
2023-08-22T11:00:20.825Z,23.00
2023-08-22T11:02:58.525Z,23.10
2023-08-22T11:05:25.697Z,23.10
2023-08-22T11:07:55.512Z,23.20
2023-08-22T11:10:23.973Z,23.30
2023-08-22T11:13:09.139Z,23.40
2023-08-22T11:15:36.445Z,23.50
2023-08-22T11:18:05.713Z,23.50
2023-08-22T11:20:35.509Z,23.50
2023-08-22T11:23:05.447Z,23.60
2023-08-22T11:25:37.794Z,23.60
2023-08-22T11:28:05.106Z,23.70
2023-08-22T11:30:32.252Z,23.80
2023-08-22T11:32:59.294Z,23.80
2023-08-22T11:35:29.404Z,23.80
2023-08-22T11:37:56.429Z,23.90
2023-08-22T11:40:24.144Z,23.90
2023-08-22T11:42:51.212Z,24.00
2023-08-22T11:45:27.145Z,24.10
2023-08-22T11:47:55.039Z,24.10
2023-08-22T11:50:26.035Z,24.20
2023-08-22T11:52:57.425Z,24.30
2023-08-22T11:55:28.807Z,24.30
2023-08-22T11:58:01.263Z,24.40
2023-08-22T12:00:28.722Z,24.40
2023-08-22T12:02:56.696Z,24.50
2023-08-22T12:05:40.212Z,24.50
2023-08-22T12:08:07.338Z,24.60
2023-08-22T12:10:44.001Z,24.60
2023-08-22T12:13:15.068Z,24.60
2023-08-22T12:15:42.456Z,24.60
2023-08-22T12:18:10.108Z,24.60
2023-08-22T12:20:39.677Z,24.60
2023-08-22T12:23:07.799Z,24.60
2023-08-22T12:25:45.625Z,24.60
2023-08-22T12:28:12.940Z,24.50
2023-08-22T12:34:05.209Z,24.40
2023-08-22T12:36:37.562Z,24.40
2023-08-22T12:39:06.825Z,24.30
2023-08-22T12:41:34.509Z,24.40
2023-08-22T12:44:01.583Z,24.40
2023-08-22T12:46:32.505Z,24.40
2023-08-22T12:48:59.698Z,24.40
2023-08-22T12:51:26.672Z,24.40
2023-08-22T12:53:53.773Z,24.60
2023-08-22T12:57:18.590Z,24.60
2023-08-22T12:59:45.721Z,24.80
2023-08-22T13:02:48.237Z,24.90
2023-08-22T13:05:19.273Z,24.90
2023-08-22T13:10:27.492Z,24.90
2023-08-22T13:12:54.467Z,24.80
2023-08-22T13:15:21.448Z,24.80
2023-08-22T13:17:48.787Z,24.80
2023-08-22T13:20:15.958Z,24.80
2023-08-22T13:22:43.042Z,24.80
2023-08-22T13:25:11.321Z,24.80
2023-08-22T13:27:41.117Z,24.90
2023-08-22T13:30:09.163Z,24.90
2023-08-22T13:32:36.494Z,24.80
2023-08-22T13:35:03.954Z,24.90
2023-08-22T13:37:37.516Z,24.80
2023-08-22T13:43:14.844Z,24.90
2023-08-22T13:45:50.149Z,24.90
2023-08-22T13:48:17.173Z,24.90
2023-08-22T13:50:44.366Z,24.90
2023-08-22T13:53:11.488Z,24.90
2023-08-22T13:55:43.102Z,24.90
2023-08-22T14:02:28.431Z,25.00
2023-08-22T14:04:57.053Z,25.10
2023-08-22T14:10:59.775Z,25.20
2023-08-22T14:13:35.860Z,25.10
2023-08-22T14:16:03.159Z,25.10
2023-08-22T14:18:44.083Z,25.20
2023-08-22T14:21:15.953Z,25.20
2023-08-22T14:23:44.856Z,25.20
2023-08-22T14:26:23.586Z,25.20
2023-08-22T14:28:53.370Z,25.20
2023-08-22T14:31:29.089Z,25.20
2023-08-22T14:33:58.194Z,25.20
2023-08-22T14:36:35.881Z,25.20
2023-08-22T14:39:03.141Z,25.20
2023-08-22T14:41:34.990Z,25.20
2023-08-22T14:44:07.642Z,25.20
2023-08-22T14:46:49.897Z,25.20
2023-08-22T14:54:13.777Z,25.20
2023-08-22T14:56:43.092Z,25.20
2023-08-22T14:59:10.848Z,25.20
2023-08-22T15:01:38.324Z,25.20
2023-08-22T15:04:05.798Z,25.20
2023-08-22T15:06:37.588Z,25.20
2023-08-22T15:09:10.047Z,25.20
2023-08-22T15:15:46.480Z,25.20
2023-08-22T15:18:53.747Z,25.20
2023-08-22T15:22:37.970Z,25.20
2023-08-22T15:25:21.996Z,25.20
2023-08-22T15:34:55.194Z,25.20
2023-08-22T16:02:01.217Z,25.20
2023-08-22T16:05:17.830Z,25.20
2023-08-22T16:07:45.360Z,25.20
2023-08-22T16:11:16.494Z,25.10
2023-08-22T16:17:36.704Z,25.10
2023-08-22T16:20:07.775Z,25.10
2023-08-22T16:22:34.872Z,25.10
2023-08-22T16:25:02.127Z,25.10
2023-08-22T16:27:37.066Z,25.10
2023-08-22T16:30:06.774Z,25.10
2023-08-22T16:32:33.684Z,25.10
2023-08-22T16:35:01.273Z,25.20
2023-08-22T16:37:28.604Z,25.10
2023-08-22T16:39:55.536Z,25.10
2023-08-22T16:42:22.540Z,25.20
2023-08-22T16:44:49.729Z,25.10
2023-08-22T16:47:16.863Z,25.10
2023-08-22T16:49:46.487Z,25.10
2023-08-22T16:52:16.211Z,25.10
2023-08-22T16:54:43.334Z,25.10
2023-08-22T16:57:10.412Z,25.10
2023-08-22T16:59:37.499Z,25.10
2023-08-22T17:02:07.021Z,25.10
2023-08-22T17:04:34.156Z,25.10
2023-08-22T17:07:02.845Z,25.10
2023-08-22T17:09:35.986Z,25.10
2023-08-22T17:12:05.926Z,25.10
2023-08-22T17:14:35.754Z,25.10
2023-08-22T17:17:05.493Z,25.00
2023-08-22T17:19:32.927Z,25.00
2023-08-22T17:22:03.109Z,25.00
2023-08-22T17:24:30.153Z,24.90
2023-08-22T17:26:57.194Z,24.90
2023-08-22T17:29:27.070Z,24.80
2023-08-22T17:31:54.005Z,24.80
2023-08-22T17:34:20.906Z,24.70
2023-08-22T17:36:47.926Z,24.70
2023-08-22T17:39:15.005Z,24.60
2023-08-22T17:41:42.002Z,24.60
2023-08-22T17:44:08.911Z,24.60
2023-08-22T17:46:35.844Z,24.50
2023-08-22T17:49:02.773Z,24.50
2023-08-22T17:51:29.857Z,24.50
2023-08-22T17:53:58.348Z,24.50
2023-08-22T17:56:25.294Z,24.40
2023-08-22T17:58:52.373Z,24.30
2023-08-22T18:01:19.334Z,24.30
2023-08-22T18:03:46.669Z,24.30
2023-08-22T18:06:13.717Z,24.30
2023-08-22T18:08:42.303Z,24.30
2023-08-22T18:11:10.971Z,24.30
2023-08-22T18:13:38.587Z,24.20
2023-08-22T18:18:38.397Z,24.10
2023-08-22T18:21:05.973Z,24.10
2023-08-22T18:23:33.188Z,24.10
2023-08-22T18:26:07.198Z,24.10
2023-08-22T18:28:34.378Z,24.00
2023-08-22T18:31:02.656Z,24.00
2023-08-22T18:33:29.812Z,23.90
2023-08-22T18:35:56.905Z,23.90
2023-08-22T18:38:24.016Z,23.90
2023-08-22T18:40:54.719Z,23.80
2023-08-22T18:43:21.951Z,23.80
2023-08-22T18:45:49.336Z,23.80
2023-08-22T18:48:16.873Z,23.70
2023-08-22T18:50:45.143Z,23.70
2023-08-22T18:53:13.294Z,23.70
2023-08-22T18:55:43.273Z,23.60
2023-08-22T18:58:10.501Z,23.50
2023-08-22T19:00:37.816Z,23.50
2023-08-22T19:03:05.286Z,23.40
2023-08-22T19:05:32.426Z,23.40
2023-08-22T19:07:59.500Z,23.40
2023-08-22T19:10:29.317Z,23.30
2023-08-22T19:12:56.234Z,23.30
2023-08-22T19:15:23.125Z,23.30
2023-08-22T19:17:50.190Z,23.20
2023-08-22T19:20:18.513Z,23.20
2023-08-22T19:22:45.497Z,23.20
2023-08-22T19:25:12.542Z,23.20
2023-08-22T19:27:39.777Z,23.10
2023-08-22T19:30:07.573Z,23.10
2023-08-22T19:32:51.892Z,23.10
2023-08-22T19:35:21.874Z,23.00
2023-08-22T19:37:53.722Z,22.90
2023-08-22T19:40:20.956Z,22.90
2023-08-22T19:42:51.069Z,22.80
2023-08-22T19:45:18.894Z,22.80
2023-08-22T19:47:47.860Z,22.70
2023-08-22T19:50:23.072Z,22.70
2023-08-22T19:52:50.648Z,22.60
2023-08-22T19:55:17.856Z,22.60
2023-08-22T19:57:44.913Z,22.50
2023-08-22T20:00:14.915Z,22.50
2023-08-22T20:02:46.843Z,22.40
2023-08-22T20:05:21.140Z,22.30
2023-08-22T20:07:52.027Z,22.30
2023-08-22T20:10:19.242Z,22.30
2023-08-22T20:12:46.444Z,22.20
2023-08-22T20:15:13.454Z,22.20
2023-08-22T20:17:40.531Z,22.20
2023-08-22T20:20:08.250Z,22.10
2023-08-22T20:22:35.256Z,22.00
2023-08-22T20:25:02.256Z,22.00
2023-08-22T20:27:29.239Z,21.90
2023-08-22T20:29:56.325Z,22.00
2023-08-22T20:32:23.278Z,21.90
2023-08-22T20:34:51.560Z,21.90
2023-08-22T20:37:18.795Z,21.80
2023-08-22T20:39:45.759Z,21.80
2023-08-22T20:42:12.839Z,21.80
2023-08-22T20:44:39.888Z,21.80
2023-08-22T20:47:10.018Z,21.70
2023-08-22T20:49:41.780Z,21.70
2023-08-22T20:52:08.767Z,21.60
2023-08-22T20:54:35.739Z,21.60
2023-08-22T20:57:02.693Z,21.60
2023-08-22T20:59:29.994Z,21.50
2023-08-22T21:01:57.113Z,21.50
2023-08-22T21:04:24.174Z,21.50
2023-08-22T21:06:51.124Z,21.40
2023-08-22T21:09:18.046Z,21.40
2023-08-22T21:11:44.959Z,21.30
2023-08-22T21:14:12.945Z,21.30
2023-08-22T21:16:39.895Z,21.20
2023-08-22T21:19:07.263Z,21.20
2023-08-22T21:21:34.241Z,21.20
2023-08-22T21:24:01.107Z,21.10
2023-08-22T21:26:28.099Z,21.10
2023-08-22T21:28:55.053Z,21.10
2023-08-22T21:31:22.034Z,21.10
2023-08-22T21:33:49.074Z,21.00
2023-08-22T21:36:15.989Z,21.00
2023-08-22T21:38:42.920Z,21.00
2023-08-22T21:41:09.784Z,21.00
2023-08-22T21:43:36.802Z,20.90
2023-08-22T21:46:03.801Z,20.90
2023-08-22T21:48:31.009Z,20.90
2023-08-22T21:50:58.027Z,20.80
2023-08-22T21:53:24.970Z,20.80
2023-08-22T21:55:51.840Z,20.80
2023-08-22T21:58:18.701Z,20.70
2023-08-22T22:00:45.704Z,20.70
2023-08-22T22:03:14.440Z,20.70
2023-08-22T22:05:41.533Z,20.60
2023-08-22T22:08:08.463Z,20.60
2023-08-22T22:10:35.431Z,20.60
2023-08-22T22:13:02.340Z,20.60
2023-08-22T22:15:29.336Z,20.50
2023-08-22T22:17:56.360Z,20.50
2023-08-22T22:20:23.382Z,20.50
2023-08-22T22:22:50.368Z,20.50
2023-08-22T22:25:17.286Z,20.40
2023-08-22T22:27:44.685Z,20.40
2023-08-22T22:30:12.058Z,20.40
2023-08-22T22:32:38.931Z,20.30
2023-08-22T22:35:06.219Z,20.30
2023-08-22T22:37:33.130Z,20.20
2023-08-22T22:40:00.016Z,20.20
2023-08-22T22:42:26.959Z,20.20
2023-08-22T22:44:54.068Z,20.20
2023-08-22T22:47:21.025Z,20.10
2023-08-22T22:49:48.723Z,20.10
2023-08-22T22:52:15.620Z,20.10
2023-08-22T22:54:42.590Z,20.10
2023-08-22T22:57:09.591Z,20.10
2023-08-22T22:59:36.487Z,20.00
2023-08-22T23:02:03.388Z,20.00
2023-08-22T23:04:30.348Z,20.00
2023-08-22T23:06:57.298Z,20.00
2023-08-22T23:09:24.444Z,20.00
2023-08-22T23:12:02.809Z,20.00
2023-08-22T23:14:38.857Z,20.00
2023-08-22T23:17:05.840Z,19.90
2023-08-22T23:19:33.028Z,19.90
2023-08-22T23:21:59.981Z,19.90
2023-08-22T23:24:26.937Z,19.90
2023-08-22T23:26:54.164Z,19.90
2023-08-22T23:29:21.036Z,20.00
2023-08-22T23:31:48.025Z,19.90
2023-08-22T23:34:14.981Z,19.90
2023-08-22T23:36:41.902Z,20.00
2023-08-22T23:39:08.872Z,20.00
2023-08-22T23:41:35.759Z,20.00
2023-08-22T23:44:10.381Z,20.00
2023-08-22T23:46:37.335Z,20.00
2023-08-22T23:49:04.267Z,20.00
2023-08-22T23:51:31.167Z,20.00
2023-08-22T23:53:58.079Z,20.00
2023-08-22T23:56:25.622Z,20.00
2023-08-22T23:58:52.590Z,20.00
